sensor_id;sensor_type;location;lat;lon;timestamp;pressure;altitude;pressure_sealevel;temperature
9985;BMP180;16737;50.932;6.780;2023-01-04T00:02:25;100901.00;;;13.10
9985;BMP180;16737;50.932;6.780;2023-01-04T00:04:52;100899.00;;;13.20
9985;BMP180;16737;50.932;6.780;2023-01-04T00:07:19;100882.00;;;13.20
9985;BMP180;16737;50.932;6.780;2023-01-04T00:09:47;100886.00;;;13.20
9985;BMP180;16737;50.932;6.780;2023-01-04T00:12:14;100880.00;;;13.20
9985;BMP180;16737;50.932;6.780;2023-01-04T00:14:41;100881.00;;;13.30
9985;BMP180;16737;50.932;6.780;2023-01-04T00:17:09;100881.00;;;13.30
9985;BMP180;16737;50.932;6.780;2023-01-04T00:19:37;100874.00;;;13.30
9985;BMP180;16737;50.932;6.780;2023-01-04T00:22:05;100867.00;;;13.30
9985;BMP180;16737;50.932;6.780;2023-01-04T00:24:32;100867.00;;;13.30
9985;BMP180;16737;50.932;6.780;2023-01-04T00:27:00;100861.00;;;13.30
9985;BMP180;16737;50.932;6.780;2023-01-04T00:29:27;100861.00;;;13.40
9985;BMP180;16737;50.932;6.780;2023-01-04T00:31:54;100863.00;;;13.40
9985;BMP180;16737;50.932;6.780;2023-01-04T00:34:21;100869.00;;;13.40
9985;BMP180;16737;50.932;6.780;2023-01-04T00:36:50;100864.00;;;13.40
9985;BMP180;16737;50.932;6.780;2023-01-04T00:39:18;100853.00;;;13.40
9985;BMP180;16737;50.932;6.780;2023-01-04T00:41:47;100857.00;;;13.50
9985;BMP180;16737;50.932;6.780;2023-01-04T00:44:15;100853.00;;;13.50
9985;BMP180;16737;50.932;6.780;2023-01-04T00:46:43;100849.00;;;13.50
9985;BMP180;16737;50.932;6.780;2023-01-04T00:49:11;100847.00;;;13.50
9985;BMP180;16737;50.932;6.780;2023-01-04T00:51:40;100846.00;;;13.60
9985;BMP180;16737;50.932;6.780;2023-01-04T00:54:12;100828.00;;;13.60
9985;BMP180;16737;50.932;6.780;2023-01-04T00:56:40;100826.00;;;13.60
9985;BMP180;16737;50.932;6.780;2023-01-04T00:59:07;100836.00;;;13.60
9985;BMP180;16737;50.932;6.780;2023-01-04T01:01:34;100836.00;;;13.60
9985;BMP180;16737;50.932;6.780;2023-01-04T01:04:02;100820.00;;;13.60
9985;BMP180;16737;50.932;6.780;2023-01-04T01:06:31;100827.00;;;13.70
9985;BMP180;16737;50.932;6.780;2023-01-04T01:09:00;100823.00;;;13.70
9985;BMP180;16737;50.932;6.780;2023-01-04T01:11:29;100813.00;;;13.70
9985;BMP180;16737;50.932;6.780;2023-01-04T01:13:57;100809.00;;;13.70
9985;BMP180;16737;50.932;6.780;2023-01-04T01:16:26;100805.00;;;13.70
9985;BMP180;16737;50.932;6.780;2023-01-04T01:18:53;100801.00;;;13.70
9985;BMP180;16737;50.932;6.780;2023-01-04T01:21:22;100807.00;;;13.80
9985;BMP180;16737;50.932;6.780;2023-01-04T01:23:50;100795.00;;;13.80
9985;BMP180;16737;50.932;6.780;2023-01-04T01:26:19;100801.00;;;13.80
9985;BMP180;16737;50.932;6.780;2023-01-04T01:28:48;100792.00;;;13.80
9985;BMP180;16737;50.932;6.780;2023-01-04T01:31:17;100780.00;;;13.80
9985;BMP180;16737;50.932;6.780;2023-01-04T01:33:46;100785.00;;;13.80
9985;BMP180;16737;50.932;6.780;2023-01-04T01:36:14;100783.00;;;13.90
9985;BMP180;16737;50.932;6.780;2023-01-04T01:38:42;100774.00;;;13.90
9985;BMP180;16737;50.932;6.780;2023-01-04T01:41:16;100783.00;;;13.90
9985;BMP180;16737;50.932;6.780;2023-01-04T01:43:52;100773.00;;;13.90
9985;BMP180;16737;50.932;6.780;2023-01-04T01:46:25;100773.00;;;13.90
9985;BMP180;16737;50.932;6.780;2023-01-04T01:48:55;100772.00;;;13.90
9985;BMP180;16737;50.932;6.780;2023-01-04T01:51:23;100765.00;;;13.90
9985;BMP180;16737;50.932;6.780;2023-01-04T01:53:55;100771.00;;;13.90
9985;BMP180;16737;50.932;6.780;2023-01-04T01:56:27;100772.00;;;13.90
9985;BMP180;16737;50.932;6.780;2023-01-04T01:58:58;100774.00;;;13.90
9985;BMP180;16737;50.932;6.780;2023-01-04T02:01:26;100768.00;;;13.90
9985;BMP180;16737;50.932;6.780;2023-01-04T02:03:55;100774.00;;;13.90
9985;BMP180;16737;50.932;6.780;2023-01-04T02:06:26;100757.00;;;13.90
9985;BMP180;16737;50.932;6.780;2023-01-04T02:08:55;100760.00;;;14.00
9985;BMP180;16737;50.932;6.780;2023-01-04T02:11:22;100758.00;;;14.00
9985;BMP180;16737;50.932;6.780;2023-01-04T02:13:50;100750.00;;;14.00
9985;BMP180;16737;50.932;6.780;2023-01-04T02:16:47;100737.00;;;14.00
9985;BMP180;16737;50.932;6.780;2023-01-04T02:19:33;100741.00;;;14.00
9985;BMP180;16737;50.932;6.780;2023-01-04T02:22:37;100744.00;;;14.10
9985;BMP180;16737;50.932;6.780;2023-01-04T02:28:14;100731.00;;;14.10
9985;BMP180;16737;50.932;6.780;2023-01-04T02:33:49;100728.00;;;14.20
9985;BMP180;16737;50.932;6.780;2023-01-04T02:36:23;100721.00;;;14.20
9985;BMP180;16737;50.932;6.780;2023-01-04T02:39:01;100719.00;;;14.20
9985;BMP180;16737;50.932;6.780;2023-01-04T02:41:33;100722.00;;;14.20
9985;BMP180;16737;50.932;6.780;2023-01-04T02:44:10;100719.00;;;14.20
9985;BMP180;16737;50.932;6.780;2023-01-04T02:46:59;100716.00;;;14.20
9985;BMP180;16737;50.932;6.780;2023-01-04T02:49:29;100711.00;;;14.30
9985;BMP180;16737;50.932;6.780;2023-01-04T02:52:14;100714.00;;;14.30
9985;BMP180;16737;50.932;6.780;2023-01-04T02:54:42;100701.00;;;14.30
9985;BMP180;16737;50.932;6.780;2023-01-04T02:57:30;100703.00;;;14.30
9985;BMP180;16737;50.932;6.780;2023-01-04T03:00:26;100688.00;;;14.30
9985;BMP180;16737;50.932;6.780;2023-01-04T03:03:13;100693.00;;;14.30
9985;BMP180;16737;50.932;6.780;2023-01-04T03:06:10;100695.00;;;14.30
9985;BMP180;16737;50.932;6.780;2023-01-04T03:08:56;100676.00;;;14.40
9985;BMP180;16737;50.932;6.780;2023-01-04T03:11:34;100692.00;;;14.40
9985;BMP180;16737;50.932;6.780;2023-01-04T03:14:23;100681.00;;;14.40
9985;BMP180;16737;50.932;6.780;2023-01-04T03:16:53;100675.00;;;14.40
9985;BMP180;16737;50.932;6.780;2023-01-04T03:19:23;100678.00;;;14.40
9985;BMP180;16737;50.932;6.780;2023-01-04T03:22:17;100675.00;;;14.40
9985;BMP180;16737;50.932;6.780;2023-01-04T03:25:04;100666.00;;;14.40
9985;BMP180;16737;50.932;6.780;2023-01-04T03:27:51;100654.00;;;14.50
9985;BMP180;16737;50.932;6.780;2023-01-04T03:30:41;100660.00;;;14.50
9985;BMP180;16737;50.932;6.780;2023-01-04T03:33:27;100655.00;;;14.50
9985;BMP180;16737;50.932;6.780;2023-01-04T03:36:19;100648.00;;;14.50
9985;BMP180;16737;50.932;6.780;2023-01-04T03:38:58;100647.00;;;14.50
9985;BMP180;16737;50.932;6.780;2023-01-04T03:41:52;100637.00;;;14.50
9985;BMP180;16737;50.932;6.780;2023-01-04T03:44:46;100640.00;;;14.50
9985;BMP180;16737;50.932;6.780;2023-01-04T03:47:36;100650.00;;;14.50
9985;BMP180;16737;50.932;6.780;2023-01-04T03:50:26;100637.00;;;14.50
9985;BMP180;16737;50.932;6.780;2023-01-04T03:52:56;100649.00;;;14.50
9985;BMP180;16737;50.932;6.780;2023-01-04T03:55:26;100637.00;;;14.60
9985;BMP180;16737;50.932;6.780;2023-01-04T03:57:55;100638.00;;;14.60
9985;BMP180;16737;50.932;6.780;2023-01-04T04:00:23;100637.00;;;14.60
9985;BMP180;16737;50.932;6.780;2023-01-04T04:02:51;100631.00;;;14.60
9985;BMP180;16737;50.932;6.780;2023-01-04T04:05:20;100626.00;;;14.60
9985;BMP180;16737;50.932;6.780;2023-01-04T04:08:05;100622.00;;;14.60
9985;BMP180;16737;50.932;6.780;2023-01-04T04:10:55;100610.00;;;14.60
9985;BMP180;16737;50.932;6.780;2023-01-04T04:13:23;100608.00;;;14.60
9985;BMP180;16737;50.932;6.780;2023-01-04T04:15:52;100608.00;;;14.50
9985;BMP180;16737;50.932;6.780;2023-01-04T04:18:19;100603.00;;;14.50
9985;BMP180;16737;50.932;6.780;2023-01-04T04:20:46;100596.00;;;14.50
9985;BMP180;16737;50.932;6.780;2023-01-04T04:23:13;100602.00;;;14.50
9985;BMP180;16737;50.932;6.780;2023-01-04T04:25:41;100598.00;;;14.40
9985;BMP180;16737;50.932;6.780;2023-01-04T04:28:09;100601.00;;;14.40
9985;BMP180;16737;50.932;6.780;2023-01-04T04:30:38;100594.00;;;14.40
9985;BMP180;16737;50.932;6.780;2023-01-04T04:33:05;100599.00;;;14.40
9985;BMP180;16737;50.932;6.780;2023-01-04T04:35:33;100597.00;;;14.30
9985;BMP180;16737;50.932;6.780;2023-01-04T04:38:00;100593.00;;;14.30
9985;BMP180;16737;50.932;6.780;2023-01-04T04:40:27;100587.00;;;14.30
9985;BMP180;16737;50.932;6.780;2023-01-04T04:43:13;100587.00;;;14.30
9985;BMP180;16737;50.932;6.780;2023-01-04T04:45:41;100593.00;;;14.30
9985;BMP180;16737;50.932;6.780;2023-01-04T04:48:08;100582.00;;;14.30
9985;BMP180;16737;50.932;6.780;2023-01-04T04:50:35;100580.00;;;14.30
9985;BMP180;16737;50.932;6.780;2023-01-04T04:53:02;100578.00;;;14.30
9985;BMP180;16737;50.932;6.780;2023-01-04T04:55:30;100572.00;;;14.30
9985;BMP180;16737;50.932;6.780;2023-01-04T04:57:57;100572.00;;;14.30
9985;BMP180;16737;50.932;6.780;2023-01-04T05:00:26;100564.00;;;14.30
9985;BMP180;16737;50.932;6.780;2023-01-04T05:02:53;100573.00;;;14.30
9985;BMP180;16737;50.932;6.780;2023-01-04T05:05:23;100567.00;;;14.30
9985;BMP180;16737;50.932;6.780;2023-01-04T05:07:51;100564.00;;;14.30
9985;BMP180;16737;50.932;6.780;2023-01-04T05:10:18;100561.00;;;14.30
9985;BMP180;16737;50.932;6.780;2023-01-04T05:12:45;100558.00;;;14.30
9985;BMP180;16737;50.932;6.780;2023-01-04T05:15:32;100557.00;;;14.40
9985;BMP180;16737;50.932;6.780;2023-01-04T05:18:00;100552.00;;;14.40
9985;BMP180;16737;50.932;6.780;2023-01-04T05:20:28;100560.00;;;14.40
9985;BMP180;16737;50.932;6.780;2023-01-04T05:22:55;100549.00;;;14.40
9985;BMP180;16737;50.932;6.780;2023-01-04T05:25:22;100540.00;;;14.40
9985;BMP180;16737;50.932;6.780;2023-01-04T05:27:50;100541.00;;;14.50
9985;BMP180;16737;50.932;6.780;2023-01-04T05:30:18;100529.00;;;14.50
9985;BMP180;16737;50.932;6.780;2023-01-04T05:33:04;100543.00;;;14.50
9985;BMP180;16737;50.932;6.780;2023-01-04T05:35:32;100554.00;;;14.50
9985;BMP180;16737;50.932;6.780;2023-01-04T05:38:00;100546.00;;;14.50
9985;BMP180;16737;50.932;6.780;2023-01-04T05:40:28;100551.00;;;14.50
9985;BMP180;16737;50.932;6.780;2023-01-04T05:42:55;100560.00;;;14.50
9985;BMP180;16737;50.932;6.780;2023-01-04T05:45:23;100547.00;;;14.60
9985;BMP180;16737;50.932;6.780;2023-01-04T05:47:51;100546.00;;;14.60
9985;BMP180;16737;50.932;6.780;2023-01-04T05:50:21;100534.00;;;14.60
9985;BMP180;16737;50.932;6.780;2023-01-04T05:52:49;100531.00;;;14.60
9985;BMP180;16737;50.932;6.780;2023-01-04T05:55:16;100529.00;;;14.70
9985;BMP180;16737;50.932;6.780;2023-01-04T05:57:44;100521.00;;;14.70
9985;BMP180;16737;50.932;6.780;2023-01-04T06:00:12;100515.00;;;14.70
9985;BMP180;16737;50.932;6.780;2023-01-04T06:02:40;100511.00;;;14.70
9985;BMP180;16737;50.932;6.780;2023-01-04T06:05:09;100508.00;;;14.70
9985;BMP180;16737;50.932;6.780;2023-01-04T06:07:38;100505.00;;;14.70
9985;BMP180;16737;50.932;6.780;2023-01-04T06:10:07;100500.00;;;14.70
9985;BMP180;16737;50.932;6.780;2023-01-04T06:12:35;100503.00;;;14.70
9985;BMP180;16737;50.932;6.780;2023-01-04T06:15:02;100502.00;;;14.80
9985;BMP180;16737;50.932;6.780;2023-01-04T06:17:30;100494.00;;;14.80
9985;BMP180;16737;50.932;6.780;2023-01-04T06:19:57;100488.00;;;14.80
9985;BMP180;16737;50.932;6.780;2023-01-04T06:22:24;100476.00;;;14.80
9985;BMP180;16737;50.932;6.780;2023-01-04T06:24:54;100476.00;;;14.90
9985;BMP180;16737;50.932;6.780;2023-01-04T06:27:21;100479.00;;;14.90
9985;BMP180;16737;50.932;6.780;2023-01-04T06:29:48;100497.00;;;14.90
9985;BMP180;16737;50.932;6.780;2023-01-04T06:32:16;100495.00;;;14.90
9985;BMP180;16737;50.932;6.780;2023-01-04T06:34:43;100490.00;;;14.90
9985;BMP180;16737;50.932;6.780;2023-01-04T06:37:10;100477.00;;;15.00
9985;BMP180;16737;50.932;6.780;2023-01-04T06:39:38;100473.00;;;15.00
9985;BMP180;16737;50.932;6.780;2023-01-04T06:42:06;100473.00;;;15.00
9985;BMP180;16737;50.932;6.780;2023-01-04T06:44:55;100466.00;;;15.00
9985;BMP180;16737;50.932;6.780;2023-01-04T06:47:22;100467.00;;;15.00
9985;BMP180;16737;50.932;6.780;2023-01-04T06:49:49;100467.00;;;15.00
9985;BMP180;16737;50.932;6.780;2023-01-04T06:52:17;100459.00;;;15.10
9985;BMP180;16737;50.932;6.780;2023-01-04T06:54:44;100463.00;;;15.10
9985;BMP180;16737;50.932;6.780;2023-01-04T06:57:13;100466.00;;;15.10
9985;BMP180;16737;50.932;6.780;2023-01-04T06:59:40;100475.00;;;15.10
9985;BMP180;16737;50.932;6.780;2023-01-04T07:02:08;100477.00;;;15.10
9985;BMP180;16737;50.932;6.780;2023-01-04T07:04:36;100475.00;;;15.20
9985;BMP180;16737;50.932;6.780;2023-01-04T07:07:03;100479.00;;;15.20
9985;BMP180;16737;50.932;6.780;2023-01-04T07:09:30;100479.00;;;15.20
9985;BMP180;16737;50.932;6.780;2023-01-04T07:11:57;100487.00;;;15.20
9985;BMP180;16737;50.932;6.780;2023-01-04T07:14:26;100480.00;;;15.20
9985;BMP180;16737;50.932;6.780;2023-01-04T07:16:53;100476.00;;;15.20
9985;BMP180;16737;50.932;6.780;2023-01-04T07:19:20;100470.00;;;15.20
9985;BMP180;16737;50.932;6.780;2023-01-04T07:21:48;100465.00;;;15.20
9985;BMP180;16737;50.932;6.780;2023-01-04T07:24:15;100465.00;;;15.20
9985;BMP180;16737;50.932;6.780;2023-01-04T07:26:42;100466.00;;;15.20
9985;BMP180;16737;50.932;6.780;2023-01-04T07:29:12;100459.00;;;15.20
9985;BMP180;16737;50.932;6.780;2023-01-04T07:31:42;100462.00;;;15.30
9985;BMP180;16737;50.932;6.780;2023-01-04T07:34:10;100459.00;;;15.20
9985;BMP180;16737;50.932;6.780;2023-01-04T07:36:38;100462.00;;;15.30
9985;BMP180;16737;50.932;6.780;2023-01-04T07:39:06;100462.00;;;15.30
9985;BMP180;16737;50.932;6.780;2023-01-04T07:41:35;100445.00;;;15.30
9985;BMP180;16737;50.932;6.780;2023-01-04T07:44:03;100444.00;;;15.30
9985;BMP180;16737;50.932;6.780;2023-01-04T07:46:31;100439.00;;;15.30
9985;BMP180;16737;50.932;6.780;2023-01-04T07:49:00;100430.00;;;15.30
9985;BMP180;16737;50.932;6.780;2023-01-04T07:51:29;100431.00;;;15.30
9985;BMP180;16737;50.932;6.780;2023-01-04T07:53:57;100441.00;;;15.40
9985;BMP180;16737;50.932;6.780;2023-01-04T07:56:24;100431.00;;;15.40
9985;BMP180;16737;50.932;6.780;2023-01-04T07:58:52;100440.00;;;15.40
9985;BMP180;16737;50.932;6.780;2023-01-04T08:01:24;100436.00;;;15.40
9985;BMP180;16737;50.932;6.780;2023-01-04T08:03:52;100450.00;;;15.40
9985;BMP180;16737;50.932;6.780;2023-01-04T08:06:21;100454.00;;;15.40
9985;BMP180;16737;50.932;6.780;2023-01-04T08:08:48;100453.00;;;15.40
9985;BMP180;16737;50.932;6.780;2023-01-04T08:11:18;100437.00;;;15.40
9985;BMP180;16737;50.932;6.780;2023-01-04T08:13:47;100448.00;;;15.50
9985;BMP180;16737;50.932;6.780;2023-01-04T08:16:20;100438.00;;;15.50
9985;BMP180;16737;50.932;6.780;2023-01-04T08:18:47;100440.00;;;15.50
9985;BMP180;16737;50.932;6.780;2023-01-04T08:21:19;100438.00;;;15.50
9985;BMP180;16737;50.932;6.780;2023-01-04T08:23:47;100435.00;;;15.60
9985;BMP180;16737;50.932;6.780;2023-01-04T08:26:15;100430.00;;;15.60
9985;BMP180;16737;50.932;6.780;2023-01-04T08:28:43;100450.00;;;15.40
9985;BMP180;16737;50.932;6.780;2023-01-04T08:31:12;100446.00;;;15.60
9985;BMP180;16737;50.932;6.780;2023-01-04T08:33:41;100447.00;;;15.60
9985;BMP180;16737;50.932;6.780;2023-01-04T08:36:10;100460.00;;;15.60
9985;BMP180;16737;50.932;6.780;2023-01-04T08:38:39;100457.00;;;15.60
9985;BMP180;16737;50.932;6.780;2023-01-04T08:41:06;100454.00;;;15.70
9985;BMP180;16737;50.932;6.780;2023-01-04T08:43:34;100456.00;;;15.70
9985;BMP180;16737;50.932;6.780;2023-01-04T08:46:01;100451.00;;;15.70
9985;BMP180;16737;50.932;6.780;2023-01-04T08:48:30;100448.00;;;15.80
9985;BMP180;16737;50.932;6.780;2023-01-04T08:50:58;100438.00;;;15.80
9985;BMP180;16737;50.932;6.780;2023-01-04T08:53:27;100445.00;;;15.80
9985;BMP180;16737;50.932;6.780;2023-01-04T08:55:56;100448.00;;;15.80
9985;BMP180;16737;50.932;6.780;2023-01-04T08:58:26;100438.00;;;15.80
9985;BMP180;16737;50.932;6.780;2023-01-04T09:00:59;100451.00;;;15.90
9985;BMP180;16737;50.932;6.780;2023-01-04T09:03:27;100445.00;;;15.90
9985;BMP180;16737;50.932;6.780;2023-01-04T09:06:00;100445.00;;;16.00
9985;BMP180;16737;50.932;6.780;2023-01-04T09:08:27;100449.00;;;16.00
9985;BMP180;16737;50.932;6.780;2023-01-04T09:10:57;100446.00;;;16.00
9985;BMP180;16737;50.932;6.780;2023-01-04T09:13:24;100437.00;;;16.10
9985;BMP180;16737;50.932;6.780;2023-01-04T09:15:52;100456.00;;;16.10
9985;BMP180;16737;50.932;6.780;2023-01-04T09:18:19;100454.00;;;16.10
9985;BMP180;16737;50.932;6.780;2023-01-04T09:20:46;100441.00;;;16.20
9985;BMP180;16737;50.932;6.780;2023-01-04T09:23:14;100446.00;;;16.20
9985;BMP180;16737;50.932;6.780;2023-01-04T09:25:41;100450.00;;;16.30
9985;BMP180;16737;50.932;6.780;2023-01-04T09:28:09;100437.00;;;16.30
9985;BMP180;16737;50.932;6.780;2023-01-04T09:30:37;100434.00;;;16.40
9985;BMP180;16737;50.932;6.780;2023-01-04T09:33:04;100435.00;;;16.40
9985;BMP180;16737;50.932;6.780;2023-01-04T09:35:31;100436.00;;;16.50
9985;BMP180;16737;50.932;6.780;2023-01-04T09:37:58;100431.00;;;16.50
9985;BMP180;16737;50.932;6.780;2023-01-04T09:40:29;100445.00;;;16.60
9985;BMP180;16737;50.932;6.780;2023-01-04T09:42:58;100425.00;;;16.60
9985;BMP180;16737;50.932;6.780;2023-01-04T09:45:28;100440.00;;;16.70
9985;BMP180;16737;50.932;6.780;2023-01-04T09:47:59;100427.00;;;16.70
9985;BMP180;16737;50.932;6.780;2023-01-04T09:50:32;100432.00;;;16.80
9985;BMP180;16737;50.932;6.780;2023-01-04T09:53:05;100436.00;;;16.80
9985;BMP180;16737;50.932;6.780;2023-01-04T09:55:40;100424.00;;;16.90
9985;BMP180;16737;50.932;6.780;2023-01-04T09:58:26;100432.00;;;16.90
9985;BMP180;16737;50.932;6.780;2023-01-04T10:01:00;100418.00;;;17.00
9985;BMP180;16737;50.932;6.780;2023-01-04T10:03:31;100427.00;;;17.00
9985;BMP180;16737;50.932;6.780;2023-01-04T10:06:00;100425.00;;;17.10
9985;BMP180;16737;50.932;6.780;2023-01-04T10:08:27;100425.00;;;17.10
9985;BMP180;16737;50.932;6.780;2023-01-04T10:11:06;100434.00;;;17.10
9985;BMP180;16737;50.932;6.780;2023-01-04T10:13:50;100422.00;;;17.10
9985;BMP180;16737;50.932;6.780;2023-01-04T10:16:29;100425.00;;;17.20
9985;BMP180;16737;50.932;6.780;2023-01-04T10:19:15;100429.00;;;17.20
9985;BMP180;16737;50.932;6.780;2023-01-04T10:21:48;100441.00;;;17.20
9985;BMP180;16737;50.932;6.780;2023-01-04T10:24:37;100427.00;;;17.20
9985;BMP180;16737;50.932;6.780;2023-01-04T10:27:06;100425.00;;;17.20
9985;BMP180;16737;50.932;6.780;2023-01-04T10:29:46;100440.00;;;17.20
9985;BMP180;16737;50.932;6.780;2023-01-04T10:32:30;100417.00;;;17.20
9985;BMP180;16737;50.932;6.780;2023-01-04T10:34:59;100414.00;;;17.20
9985;BMP180;16737;50.932;6.780;2023-01-04T10:37:34;100427.00;;;17.10
9985;BMP180;16737;50.932;6.780;2023-01-04T10:40:09;100412.00;;;17.10
9985;BMP180;16737;50.932;6.780;2023-01-04T10:42:40;100412.00;;;17.10
9985;BMP180;16737;50.932;6.780;2023-01-04T10:45:15;100418.00;;;17.10
9985;BMP180;16737;50.932;6.780;2023-01-04T10:47:52;100417.00;;;17.00
9985;BMP180;16737;50.932;6.780;2023-01-04T10:50:26;100409.00;;;17.00
9985;BMP180;16737;50.932;6.780;2023-01-04T10:53:00;100410.00;;;17.00
9985;BMP180;16737;50.932;6.780;2023-01-04T10:55:38;100410.00;;;16.90
9985;BMP180;16737;50.932;6.780;2023-01-04T10:58:15;100407.00;;;16.90
9985;BMP180;16737;50.932;6.780;2023-01-04T11:00:46;100396.00;;;16.90
9985;BMP180;16737;50.932;6.780;2023-01-04T11:03:23;100399.00;;;16.90
9985;BMP180;16737;50.932;6.780;2023-01-04T11:05:56;100380.00;;;16.90
9985;BMP180;16737;50.932;6.780;2023-01-04T11:08:29;100386.00;;;16.90
9985;BMP180;16737;50.932;6.780;2023-01-04T11:11:01;100387.00;;;16.90
9985;BMP180;16737;50.932;6.780;2023-01-04T11:13:30;100384.00;;;16.90
9985;BMP180;16737;50.932;6.780;2023-01-04T11:15:59;100394.00;;;17.00
9985;BMP180;16737;50.932;6.780;2023-01-04T11:18:29;100387.00;;;17.00
9985;BMP180;16737;50.932;6.780;2023-01-04T11:20:57;100387.00;;;17.00
9985;BMP180;16737;50.932;6.780;2023-01-04T11:23:24;100383.00;;;17.00
9985;BMP180;16737;50.932;6.780;2023-01-04T11:25:56;100381.00;;;17.00
9985;BMP180;16737;50.932;6.780;2023-01-04T11:28:27;100371.00;;;17.00
9985;BMP180;16737;50.932;6.780;2023-01-04T11:31:00;100374.00;;;17.00
9985;BMP180;16737;50.932;6.780;2023-01-04T11:33:51;100364.00;;;17.00
9985;BMP180;16737;50.932;6.780;2023-01-04T11:36:33;100347.00;;;17.00
9985;BMP180;16737;50.932;6.780;2023-01-04T11:39:02;100342.00;;;17.00
9985;BMP180;16737;50.932;6.780;2023-01-04T11:41:29;100350.00;;;17.10
9985;BMP180;16737;50.932;6.780;2023-01-04T11:43:58;100339.00;;;17.10
9985;BMP180;16737;50.932;6.780;2023-01-04T11:46:27;100340.00;;;17.10
9985;BMP180;16737;50.932;6.780;2023-01-04T11:48:56;100345.00;;;17.10
9985;BMP180;16737;50.932;6.780;2023-01-04T11:51:36;100338.00;;;17.10
9985;BMP180;16737;50.932;6.780;2023-01-04T11:54:15;100338.00;;;17.10
9985;BMP180;16737;50.932;6.780;2023-01-04T11:56:58;100325.00;;;17.10
9985;BMP180;16737;50.932;6.780;2023-01-04T11:59:26;100330.00;;;17.20
9985;BMP180;16737;50.932;6.780;2023-01-04T12:02:17;100320.00;;;17.20
9985;BMP180;16737;50.932;6.780;2023-01-04T12:04:46;100336.00;;;17.20
9985;BMP180;16737;50.932;6.780;2023-01-04T12:07:26;100331.00;;;17.30
9985;BMP180;16737;50.932;6.780;2023-01-04T12:09:55;100339.00;;;17.30
9985;BMP180;16737;50.932;6.780;2023-01-04T12:12:27;100321.00;;;17.30
9985;BMP180;16737;50.932;6.780;2023-01-04T12:14:56;100349.00;;;17.30
9985;BMP180;16737;50.932;6.780;2023-01-04T12:17:29;100326.00;;;17.40
9985;BMP180;16737;50.932;6.780;2023-01-04T12:20:04;100333.00;;;17.40
9985;BMP180;16737;50.932;6.780;2023-01-04T12:22:38;100324.00;;;17.40
9985;BMP180;16737;50.932;6.780;2023-01-04T12:25:20;100333.00;;;17.40
9985;BMP180;16737;50.932;6.780;2023-01-04T12:27:49;100318.00;;;17.40
9985;BMP180;16737;50.932;6.780;2023-01-04T12:30:32;100316.00;;;17.40
9985;BMP180;16737;50.932;6.780;2023-01-04T12:32:59;100330.00;;;17.40
9985;BMP180;16737;50.932;6.780;2023-01-04T12:36:00;100299.00;;;17.40
9985;BMP180;16737;50.932;6.780;2023-01-04T12:39:02;100305.00;;;17.40
9985;BMP180;16737;50.932;6.780;2023-01-04T12:44:57;100295.00;;;17.40
9985;BMP180;16737;50.932;6.780;2023-01-04T12:47:44;100303.00;;;17.40
9985;BMP180;16737;50.932;6.780;2023-01-04T12:50:29;100295.00;;;17.40
9985;BMP180;16737;50.932;6.780;2023-01-04T12:53:02;100307.00;;;17.40
9985;BMP180;16737;50.932;6.780;2023-01-04T12:55:57;100299.00;;;17.40
9985;BMP180;16737;50.932;6.780;2023-01-04T13:01:32;100296.00;;;17.40
9985;BMP180;16737;50.932;6.780;2023-01-04T13:04:03;100286.00;;;17.40
9985;BMP180;16737;50.932;6.780;2023-01-04T13:06:33;100266.00;;;17.40
9985;BMP180;16737;50.932;6.780;2023-01-04T13:09:13;100283.00;;;17.40
9985;BMP180;16737;50.932;6.780;2023-01-04T13:12:04;100278.00;;;17.30
9985;BMP180;16737;50.932;6.780;2023-01-04T13:14:38;100269.00;;;17.40
9985;BMP180;16737;50.932;6.780;2023-01-04T13:17:19;100288.00;;;17.40
9985;BMP180;16737;50.932;6.780;2023-01-04T13:19:47;100279.00;;;17.40
9985;BMP180;16737;50.932;6.780;2023-01-04T13:22:20;100266.00;;;17.40
9985;BMP180;16737;50.932;6.780;2023-01-04T13:24:51;100279.00;;;17.40
9985;BMP180;16737;50.932;6.780;2023-01-04T13:27:20;100276.00;;;17.40
9985;BMP180;16737;50.932;6.780;2023-01-04T13:29:49;100267.00;;;17.40
9985;BMP180;16737;50.932;6.780;2023-01-04T13:32:21;100270.00;;;17.30
9985;BMP180;16737;50.932;6.780;2023-01-04T13:34:54;100265.00;;;17.30
9985;BMP180;16737;50.932;6.780;2023-01-04T13:37:29;100263.00;;;17.30
9985;BMP180;16737;50.932;6.780;2023-01-04T13:40:19;100277.00;;;17.30
9985;BMP180;16737;50.932;6.780;2023-01-04T13:42:49;100272.00;;;17.30
9985;BMP180;16737;50.932;6.780;2023-01-04T13:45:53;100279.00;;;17.30
9985;BMP180;16737;50.932;6.780;2023-01-04T13:48:34;100276.00;;;17.30
9985;BMP180;16737;50.932;6.780;2023-01-04T13:51:04;100255.00;;;17.30
9985;BMP180;16737;50.932;6.780;2023-01-04T13:53:32;100263.00;;;17.30
9985;BMP180;16737;50.932;6.780;2023-01-04T13:56:02;100274.00;;;17.30
9985;BMP180;16737;50.932;6.780;2023-01-04T13:58:30;100269.00;;;17.30
9985;BMP180;16737;50.932;6.780;2023-01-04T14:01:00;100259.00;;;17.30
9985;BMP180;16737;50.932;6.780;2023-01-04T14:03:35;100258.00;;;17.40
9985;BMP180;16737;50.932;6.780;2023-01-04T14:06:13;100259.00;;;17.40
9985;BMP180;16737;50.932;6.780;2023-01-04T14:08:45;100251.00;;;17.40
9985;BMP180;16737;50.932;6.780;2023-01-04T14:11:21;100260.00;;;17.40
9985;BMP180;16737;50.932;6.780;2023-01-04T14:14:23;100254.00;;;17.40
9985;BMP180;16737;50.932;6.780;2023-01-04T14:17:12;100253.00;;;17.40
9985;BMP180;16737;50.932;6.780;2023-01-04T14:19:43;100255.00;;;17.40
9985;BMP180;16737;50.932;6.780;2023-01-04T14:25:45;100259.00;;;17.40
9985;BMP180;16737;50.932;6.780;2023-01-04T14:28:28;100265.00;;;17.40
9985;BMP180;16737;50.932;6.780;2023-01-04T14:31:12;100241.00;;;17.40
9985;BMP180;16737;50.932;6.780;2023-01-04T14:33:42;100249.00;;;17.50
9985;BMP180;16737;50.932;6.780;2023-01-04T14:36:12;100249.00;;;17.50
9985;BMP180;16737;50.932;6.780;2023-01-04T14:38:42;100260.00;;;17.50
9985;BMP180;16737;50.932;6.780;2023-01-04T14:41:16;100259.00;;;17.60
9985;BMP180;16737;50.932;6.780;2023-01-04T14:43:48;100264.00;;;17.60
9985;BMP180;16737;50.932;6.780;2023-01-04T14:46:18;100260.00;;;17.60
9985;BMP180;16737;50.932;6.780;2023-01-04T14:48:45;100255.00;;;17.60
9985;BMP180;16737;50.932;6.780;2023-01-04T14:51:15;100255.00;;;17.60
9985;BMP180;16737;50.932;6.780;2023-01-04T14:53:44;100238.00;;;17.60
9985;BMP180;16737;50.932;6.780;2023-01-04T14:56:12;100232.00;;;17.60